sensor_id;sensor_type;location;lat;lon;timestamp;pressure;altitude;pressure_sealevel;temperature;humidity
3697;BME280;60662;48.810;8.872;2022-12-07T19:39:03;96285.09;;;18.96;76.65
3697;BME280;60662;48.810;8.872;2022-12-07T19:40:13;96285.91;;;18.97;76.56
3697;BME280;60662;48.810;8.872;2022-12-07T19:41:15;96291.66;;;19.02;76.34
3697;BME280;60662;48.810;8.872;2022-12-07T19:42:34;96282.06;;;19.01;76.30
3697;BME280;60662;48.810;8.872;2022-12-07T19:43:36;96282.16;;;18.99;75.89
3697;BME280;60662;48.810;8.872;2022-12-07T19:44:37;96294.75;;;19.07;76.14
3697;BME280;60662;48.810;8.872;2022-12-07T19:45:39;96295.59;;;19.07;76.21
3697;BME280;60662;48.810;8.872;2022-12-07T19:46:42;96292.53;;;19.12;76.07
3697;BME280;60662;48.810;8.872;2022-12-07T19:47:47;96290.75;;;19.13;75.99
3697;BME280;60662;48.810;8.872;2022-12-07T19:48:49;96277.31;;;19.04;75.82
3697;BME280;60662;48.810;8.872;2022-12-07T19:49:50;96279.44;;;19.11;75.86
3697;BME280;60662;48.810;8.872;2022-12-07T19:50:51;96288.09;;;19.13;76.03
3697;BME280;60662;48.810;8.872;2022-12-07T19:52:05;96278.19;;;19.05;76.00
3697;BME280;60662;48.810;8.872;2022-12-07T19:53:07;96283.91;;;19.10;76.38
3697;BME280;60662;48.810;8.872;2022-12-07T19:54:10;96284.88;;;19.09;76.46
3697;BME280;60662;48.810;8.872;2022-12-07T19:55:12;96280.81;;;19.05;76.09
3697;BME280;60662;48.810;8.872;2022-12-07T19:56:19;96285.53;;;19.01;76.27
3697;BME280;60662;48.810;8.872;2022-12-07T19:57:20;96281.50;;;19.07;76.51
3697;BME280;60662;48.810;8.872;2022-12-07T19:58:22;96276.94;;;19.09;76.22
3697;BME280;60662;48.810;8.872;2022-12-07T19:59:26;96275.66;;;19.03;75.92
3697;BME280;60662;48.810;8.872;2022-12-07T20:00:28;96277.22;;;19.06;76.26
3697;BME280;60662;48.810;8.872;2022-12-07T20:01:30;96264.94;;;19.05;75.67
3697;BME280;60662;48.810;8.872;2022-12-07T20:02:31;96274.50;;;19.17;75.78
3697;BME280;60662;48.810;8.872;2022-12-07T20:03:33;96277.81;;;19.19;75.71
3697;BME280;60662;48.810;8.872;2022-12-07T20:04:35;96271.94;;;19.16;75.50
3697;BME280;60662;48.810;8.872;2022-12-07T20:05:36;96267.09;;;19.21;75.46
3697;BME280;60662;48.810;8.872;2022-12-07T20:06:38;96266.84;;;19.24;75.17
3697;BME280;60662;48.810;8.872;2022-12-07T20:07:40;96272.84;;;19.26;75.35
3697;BME280;60662;48.810;8.872;2022-12-07T20:08:42;96263.50;;;19.22;75.39
3697;BME280;60662;48.810;8.872;2022-12-07T20:09:44;96257.63;;;19.18;75.45
3697;BME280;60662;48.810;8.872;2022-12-07T20:10:46;96264.78;;;19.28;75.62
3697;BME280;60662;48.810;8.872;2022-12-07T20:11:48;96242.75;;;19.17;75.42
3697;BME280;60662;48.810;8.872;2022-12-07T20:13:08;96264.22;;;19.24;75.33
3697;BME280;60662;48.810;8.872;2022-12-07T20:14:29;96258.03;;;19.14;75.55
3697;BME280;60662;48.810;8.872;2022-12-07T20:15:31;96261.16;;;19.29;75.79
3697;BME280;60662;48.810;8.872;2022-12-07T20:16:33;96261.88;;;19.31;75.63
3697;BME280;60662;48.810;8.872;2022-12-07T20:17:38;96261.88;;;19.31;75.26
3697;BME280;60662;48.810;8.872;2022-12-07T20:18:39;96260.53;;;19.15;75.50
3697;BME280;60662;48.810;8.872;2022-12-07T20:19:41;96262.25;;;19.26;75.90
3697;BME280;60662;48.810;8.872;2022-12-07T20:20:54;96262.00;;;19.29;75.53
3697;BME280;60662;48.810;8.872;2022-12-07T20:21:56;96267.03;;;19.32;75.25
3697;BME280;60662;48.810;8.872;2022-12-07T20:23:01;96266.34;;;19.30;75.48
3697;BME280;60662;48.810;8.872;2022-12-07T20:24:05;96262.97;;;19.28;75.40
3697;BME280;60662;48.810;8.872;2022-12-07T20:25:07;96261.16;;;19.29;75.41
3697;BME280;60662;48.810;8.872;2022-12-07T20:26:12;96233.34;;;19.13;75.65
3697;BME280;60662;48.810;8.872;2022-12-07T20:27:14;96261.56;;;19.24;75.77
3697;BME280;60662;48.810;8.872;2022-12-07T20:28:20;96254.44;;;19.24;75.69
3697;BME280;60662;48.810;8.872;2022-12-07T20:29:23;96253.63;;;19.24;75.71
3697;BME280;60662;48.810;8.872;2022-12-07T20:30:25;96242.16;;;19.14;75.46
3697;BME280;60662;48.810;8.872;2022-12-07T20:31:26;96248.72;;;19.19;75.75
3697;BME280;60662;48.810;8.872;2022-12-07T20:32:28;96250.25;;;19.22;75.85
3697;BME280;60662;48.810;8.872;2022-12-07T20:33:30;96244.97;;;19.22;75.83
3697;BME280;60662;48.810;8.872;2022-12-07T20:34:32;96235.47;;;19.19;75.53
3697;BME280;60662;48.810;8.872;2022-12-07T20:35:33;96236.88;;;19.23;75.79
3697;BME280;60662;48.810;8.872;2022-12-07T20:36:35;96246.94;;;19.20;75.90
3697;BME280;60662;48.810;8.872;2022-12-07T20:37:37;96247.31;;;19.15;75.96
3697;BME280;60662;48.810;8.872;2022-12-07T20:38:38;96232.34;;;19.04;75.75
3697;BME280;60662;48.810;8.872;2022-12-07T20:39:40;96235.13;;;19.03;75.95
3697;BME280;60662;48.810;8.872;2022-12-07T20:40:48;96237.38;;;19.07;75.98
3697;BME280;60662;48.810;8.872;2022-12-07T20:41:50;96229.25;;;18.99;75.61
3697;BME280;60662;48.810;8.872;2022-12-07T20:43:10;96245.38;;;19.17;75.61
3697;BME280;60662;48.810;8.872;2022-12-07T20:44:12;96220.13;;;19.13;75.29
3697;BME280;60662;48.810;8.872;2022-12-07T20:45:14;96239.66;;;19.22;75.10
3697;BME280;60662;48.810;8.872;2022-12-07T20:46:16;96242.75;;;19.27;74.94
3697;BME280;60662;48.810;8.872;2022-12-07T20:47:17;96225.63;;;19.21;74.83
3697;BME280;60662;48.810;8.872;2022-12-07T20:48:19;96230.38;;;19.28;74.91
3697;BME280;60662;48.810;8.872;2022-12-07T20:49:21;96227.72;;;19.28;74.76
3697;BME280;60662;48.810;8.872;2022-12-07T20:50:22;96219.75;;;19.18;74.86
3697;BME280;60662;48.810;8.872;2022-12-07T20:51:24;96222.13;;;19.21;74.84
3697;BME280;60662;48.810;8.872;2022-12-07T20:52:25;96227.16;;;19.24;74.46
3697;BME280;60662;48.810;8.872;2022-12-07T20:53:27;96215.84;;;19.22;74.54
3697;BME280;60662;48.810;8.872;2022-12-07T20:54:28;96217.91;;;19.18;74.57
3697;BME280;60662;48.810;8.872;2022-12-07T20:55:30;96228.56;;;19.28;75.12
3697;BME280;60662;48.810;8.872;2022-12-07T20:56:32;96225.78;;;19.30;75.02
3697;BME280;60662;48.810;8.872;2022-12-07T20:57:34;96229.84;;;19.34;74.71
3697;BME280;60662;48.810;8.872;2022-12-07T20:58:35;96217.97;;;19.28;74.78
3697;BME280;60662;48.810;8.872;2022-12-07T20:59:37;96229.53;;;19.27;74.59
3697;BME280;60662;48.810;8.872;2022-12-07T21:00:42;96229.66;;;19.25;74.86
3697;BME280;60662;48.810;8.872;2022-12-07T21:01:43;96220.56;;;19.18;75.02
3697;BME280;60662;48.810;8.872;2022-12-07T21:02:46;96225.75;;;19.20;75.01
3697;BME280;60662;48.810;8.872;2022-12-07T21:03:48;96230.19;;;19.19;74.99
3697;BME280;60662;48.810;8.872;2022-12-07T21:04:49;96231.28;;;19.17;75.35
3697;BME280;60662;48.810;8.872;2022-12-07T21:05:51;96227.25;;;19.13;75.31
3697;BME280;60662;48.810;8.872;2022-12-07T21:06:52;96216.91;;;19.09;75.35
3697;BME280;60662;48.810;8.872;2022-12-07T21:07:54;96218.59;;;19.11;75.41
3697;BME280;60662;48.810;8.872;2022-12-07T21:08:57;96214.25;;;19.09;75.40
3697;BME280;60662;48.810;8.872;2022-12-07T21:09:59;96223.19;;;19.08;75.48
3697;BME280;60662;48.810;8.872;2022-12-07T21:11:06;96215.94;;;19.11;75.16
3697;BME280;60662;48.810;8.872;2022-12-07T21:12:08;96217.91;;;19.08;75.46
3697;BME280;60662;48.810;8.872;2022-12-07T21:13:11;96223.19;;;19.08;75.47
3697;BME280;60662;48.810;8.872;2022-12-07T21:14:13;96211.44;;;19.01;75.51
3697;BME280;60662;48.810;8.872;2022-12-07T21:15:14;96220.78;;;19.05;75.40
3697;BME280;60662;48.810;8.872;2022-12-07T21:16:22;96219.09;;;19.04;75.94
3697;BME280;60662;48.810;8.872;2022-12-07T21:17:24;96207.97;;;19.01;75.77
3697;BME280;60662;48.810;8.872;2022-12-07T21:18:28;96213.81;;;19.04;75.57
3697;BME280;60662;48.810;8.872;2022-12-07T21:19:29;96219.09;;;19.04;75.62
3697;BME280;60662;48.810;8.872;2022-12-07T21:20:31;96218.72;;;19.09;75.53
3697;BME280;60662;48.810;8.872;2022-12-07T21:21:33;96207.31;;;19.08;75.69
3697;BME280;60662;48.810;8.872;2022-12-07T21:22:35;96211.22;;;19.14;75.63
3697;BME280;60662;48.810;8.872;2022-12-07T21:23:37;96204.25;;;19.13;75.28
3697;BME280;60662;48.810;8.872;2022-12-07T21:24:38;96194.34;;;19.05;75.37
3697;BME280;60662;48.810;8.872;2022-12-07T21:25:41;96203.69;;;19.09;74.90
3697;BME280;60662;48.810;8.872;2022-12-07T21:26:46;96190.00;;;19.04;75.01
3697;BME280;60662;48.810;8.872;2022-12-07T21:27:48;96201.59;;;19.13;74.66
3697;BME280;60662;48.810;8.872;2022-12-07T21:28:49;96209.88;;;19.20;74.89
3697;BME280;60662;48.810;8.872;2022-12-07T21:29:51;96197.47;;;19.20;74.72
3697;BME280;60662;48.810;8.872;2022-12-07T21:30:56;96198.88;;;19.24;74.31
3697;BME280;60662;48.810;8.872;2022-12-07T21:32:16;96205.56;;;19.29;74.32
3697;BME280;60662;48.810;8.872;2022-12-07T21:33:18;96208.34;;;19.27;74.42
3697;BME280;60662;48.810;8.872;2022-12-07T21:34:20;96198.28;;;19.21;74.37
3697;BME280;60662;48.810;8.872;2022-12-07T21:35:21;96211.97;;;19.26;74.27
3697;BME280;60662;48.810;8.872;2022-12-07T21:36:24;96210.84;;;19.29;74.55
3697;BME280;60662;48.810;8.872;2022-12-07T21:37:26;96211.28;;;19.24;74.53
3697;BME280;60662;48.810;8.872;2022-12-07T21:38:28;96200.94;;;19.21;74.78
3697;BME280;60662;48.810;8.872;2022-12-07T21:39:30;96196.66;;;19.20;74.47
3697;BME280;60662;48.810;8.872;2022-12-07T21:40:36;96212.69;;;19.28;74.43
3697;BME280;60662;48.810;8.872;2022-12-07T21:41:37;96202.91;;;19.29;74.58
3697;BME280;60662;48.810;8.872;2022-12-07T21:42:38;96209.59;;;19.23;74.63
3697;BME280;60662;48.810;8.872;2022-12-07T21:43:41;96207.66;;;19.25;74.39
3697;BME280;60662;48.810;8.872;2022-12-07T21:44:42;96200.84;;;19.22;74.62
3697;BME280;60662;48.810;8.872;2022-12-07T21:45:51;96205.84;;;19.25;74.52
3697;BME280;60662;48.810;8.872;2022-12-07T21:46:53;96188.72;;;19.20;74.34
3697;BME280;60662;48.810;8.872;2022-12-07T21:47:54;96194.53;;;19.23;74.58
3697;BME280;60662;48.810;8.872;2022-12-07T21:48:58;96200.56;;;19.25;74.46
3697;BME280;60662;48.810;8.872;2022-12-07T21:50:00;96181.53;;;19.11;74.32
3697;BME280;60662;48.810;8.872;2022-12-07T21:51:06;96196.91;;;19.17;74.76
3697;BME280;60662;48.810;8.872;2022-12-07T21:52:08;96178.75;;;19.12;74.51
3697;BME280;60662;48.810;8.872;2022-12-07T21:53:10;96199.72;;;19.25;74.61
3697;BME280;60662;48.810;8.872;2022-12-07T21:54:11;96187.59;;;19.22;74.30
3697;BME280;60662;48.810;8.872;2022-12-07T21:55:13;96177.84;;;19.23;74.08
3697;BME280;60662;48.810;8.872;2022-12-07T21:56:23;96187.03;;;19.19;74.03
3697;BME280;60662;48.810;8.872;2022-12-07T21:57:25;96170.28;;;19.08;73.98
3697;BME280;60662;48.810;8.872;2022-12-07T21:58:26;96184.25;;;19.20;73.75
3697;BME280;60662;48.810;8.872;2022-12-07T21:59:28;96191.22;;;19.21;73.73
3697;BME280;60662;48.810;8.872;2022-12-07T22:00:29;96184.25;;;19.20;73.54
3697;BME280;60662;48.810;8.872;2022-12-07T22:01:33;96196.22;;;19.24;73.57
3697;BME280;60662;48.810;8.872;2022-12-07T22:02:37;96179.84;;;19.09;73.63
3697;BME280;60662;48.810;8.872;2022-12-07T22:03:43;96188.38;;;19.13;73.99
3697;BME280;60662;48.810;8.872;2022-12-07T22:04:45;96198.44;;;19.19;73.85
3697;BME280;60662;48.810;8.872;2022-12-07T22:05:46;96183.06;;;19.03;74.00
3697;BME280;60662;48.810;8.872;2022-12-07T22:06:48;96200.06;;;19.11;74.34
3697;BME280;60662;48.810;8.872;2022-12-07T22:07:50;96199.81;;;19.14;74.28
3697;BME280;60662;48.810;8.872;2022-12-07T22:08:56;96191.53;;;19.07;74.35
3697;BME280;60662;48.810;8.872;2022-12-07T22:09:57;96184.72;;;19.04;74.25
3697;BME280;60662;48.810;8.872;2022-12-07T22:11:00;96191.53;;;19.07;74.44
3697;BME280;60662;48.810;8.872;2022-12-07T22:12:01;96193.66;;;19.13;74.29
3697;BME280;60662;48.810;8.872;2022-12-07T22:13:03;96193.81;;;19.12;73.74
3697;BME280;60662;48.810;8.872;2022-12-07T22:14:05;96201.78;;;19.21;73.87
3697;BME280;60662;48.810;8.872;2022-12-07T22:15:26;96185.28;;;19.08;73.81
3697;BME280;60662;48.810;8.872;2022-12-07T22:16:28;96205.69;;;19.17;73.73
3697;BME280;60662;48.810;8.872;2022-12-07T22:17:30;96204.00;;;19.16;73.52
3697;BME280;60662;48.810;8.872;2022-12-07T22:18:32;96205.09;;;19.14;73.58
3697;BME280;60662;48.810;8.872;2022-12-07T22:19:33;96200.06;;;19.11;73.65
3697;BME280;60662;48.810;8.872;2022-12-07T22:20:35;96185.56;;;19.05;73.48
3697;BME280;60662;48.810;8.872;2022-12-07T22:21:38;96204.97;;;19.15;73.36
3697;BME280;60662;48.810;8.872;2022-12-07T22:22:39;96204.00;;;19.16;73.32
3697;BME280;60662;48.810;8.872;2022-12-07T22:23:45;96205.28;;;19.22;73.45
3697;BME280;60662;48.810;8.872;2022-12-07T22:24:48;96206.81;;;19.24;73.36
3697;BME280;60662;48.810;8.872;2022-12-07T22:25:49;96194.81;;;19.20;73.47
3697;BME280;60662;48.810;8.872;2022-12-07T22:26:51;96209.59;;;19.23;73.51
3697;BME280;60662;48.810;8.872;2022-12-07T22:27:52;96204.31;;;19.23;73.29
3697;BME280;60662;48.810;8.872;2022-12-07T22:28:54;96204.69;;;19.18;73.13
3697;BME280;60662;48.810;8.872;2022-12-07T22:29:55;96202.03;;;19.18;73.07
3697;BME280;60662;48.810;8.872;2022-12-07T22:31:02;96195.22;;;19.16;73.15
3697;BME280;60662;48.810;8.872;2022-12-07T22:32:05;96208.19;;;19.19;73.16
3697;BME280;60662;48.810;8.872;2022-12-07T22:33:26;96178.75;;;19.02;73.08
3697;BME280;60662;48.810;8.872;2022-12-07T22:34:27;96200.06;;;19.11;73.10
3697;BME280;60662;48.810;8.872;2022-12-07T22:35:29;96190.72;;;19.06;73.39
3697;BME280;60662;48.810;8.872;2022-12-07T22:36:31;96183.31;;;19.00;73.19
3697;BME280;60662;48.810;8.872;2022-12-07T22:37:32;96188.47;;;19.02;73.38
3697;BME280;60662;48.810;8.872;2022-12-07T22:38:36;96190.16;;;19.03;73.22
3697;BME280;60662;48.810;8.872;2022-12-07T22:39:38;96194.75;;;19.01;73.54
3697;BME280;60662;48.810;8.872;2022-12-07T22:40:40;96191.25;;;19.00;73.41
3697;BME280;60662;48.810;8.872;2022-12-07T22:41:41;96186.66;;;19.02;73.10
3697;BME280;60662;48.810;8.872;2022-12-07T22:42:43;96187.06;;;18.98;72.90
3697;BME280;60662;48.810;8.872;2022-12-07T22:43:44;96183.59;;;18.97;72.84
3697;BME280;60662;48.810;8.872;2022-12-07T22:44:46;96177.44;;;18.97;72.80
3697;BME280;60662;48.810;8.872;2022-12-07T22:45:55;96174.78;;;18.97;72.87
3697;BME280;60662;48.810;8.872;2022-12-07T22:46:57;96181.78;;;18.98;72.90
3697;BME280;60662;48.810;8.872;2022-12-07T22:48:01;96185.81;;;19.02;72.82
3697;BME280;60662;48.810;8.872;2022-12-07T22:49:03;96184.16;;;19.01;72.74
3697;BME280;60662;48.810;8.872;2022-12-07T22:50:05;96176.88;;;18.93;72.48
3697;BME280;60662;48.810;8.872;2022-12-07T22:51:23;96187.50;;;19.03;72.35
3697;BME280;60662;48.810;8.872;2022-12-07T22:52:25;96182.63;;;18.98;72.38
3697;BME280;60662;48.810;8.872;2022-12-07T22:53:27;96186.91;;;18.99;72.45
3697;BME280;60662;48.810;8.872;2022-12-07T22:54:29;96183.59;;;18.97;72.32
3697;BME280;60662;48.810;8.872;2022-12-07T22:55:30;96177.72;;;18.93;72.32
3697;BME280;60662;48.810;8.872;2022-12-07T22:56:34;96188.59;;;19.00;72.02
3697;BME280;60662;48.810;8.872;2022-12-07T22:57:36;96181.06;;;18.96;72.28
3697;BME280;60662;48.810;8.872;2022-12-07T22:58:41;96181.78;;;18.98;72.17
3697;BME280;60662;48.810;8.872;2022-12-07T22:59:43;96173.53;;;18.91;72.26
3697;BME280;60662;48.810;8.872;2022-12-07T23:00:45;96180.09;;;18.97;71.98
3697;BME280;60662;48.810;8.872;2022-12-07T23:01:46;96181.06;;;18.96;72.01
3697;BME280;60662;48.810;8.872;2022-12-07T23:02:48;96181.19;;;18.94;72.08
3697;BME280;60662;48.810;8.872;2022-12-07T23:03:53;96175.75;;;18.96;71.88
3697;BME280;60662;48.810;8.872;2022-12-07T23:04:55;96176.63;;;18.96;72.09
3697;BME280;60662;48.810;8.872;2022-12-07T23:05:56;96178.41;;;18.96;71.91
3697;BME280;60662;48.810;8.872;2022-12-07T23:06:58;96178.41;;;18.96;71.86
3697;BME280;60662;48.810;8.872;2022-12-07T23:07:59;96176.88;;;18.93;72.12
3697;BME280;60662;48.810;8.872;2022-12-07T23:09:04;96177.72;;;18.93;71.95
3697;BME280;60662;48.810;8.872;2022-12-07T23:10:06;96165.69;;;18.89;71.93
3697;BME280;60662;48.810;8.872;2022-12-07T23:11:09;96169.06;;;18.91;71.91
3697;BME280;60662;48.810;8.872;2022-12-07T23:12:11;96175.44;;;18.89;71.68
3697;BME280;60662;48.810;8.872;2022-12-07T23:13:42;96171.00;;;18.89;71.78
3697;BME280;60662;48.810;8.872;2022-12-07T23:14:43;96158.16;;;18.85;71.76
3697;BME280;60662;48.810;8.872;2022-12-07T23:15:45;96177.72;;;18.93;71.64
3697;BME280;60662;48.810;8.872;2022-12-07T23:16:46;96167.50;;;18.89;71.61
3697;BME280;60662;48.810;8.872;2022-12-07T23:17:48;96175.91;;;18.94;71.80
3697;BME280;60662;48.810;8.872;2022-12-07T23:18:50;96178.81;;;18.91;71.82
3697;BME280;60662;48.810;8.872;2022-12-07T23:19:52;96166.22;;;18.83;71.75
3697;BME280;60662;48.810;8.872;2022-12-07T23:20:56;96174.34;;;18.91;71.83
3697;BME280;60662;48.810;8.872;2022-12-07T23:21:58;96177.97;;;18.90;71.81
3697;BME280;60662;48.810;8.872;2022-12-07T23:23:00;96167.38;;;18.90;71.70
3697;BME280;60662;48.810;8.872;2022-12-07T23:24:05;96158.97;;;18.85;71.59
3697;BME280;60662;48.810;8.872;2022-12-07T23:25:07;96174.75;;;18.87;71.87
3697;BME280;60662;48.810;8.872;2022-12-07T23:26:09;96154.22;;;18.79;71.74
3697;BME280;60662;48.810;8.872;2022-12-07T23:27:11;96167.28;;;18.92;71.80
3697;BME280;60662;48.810;8.872;2022-12-07T23:28:12;96166.28;;;18.93;71.80
3697;BME280;60662;48.810;8.872;2022-12-07T23:29:17;96159.34;;;18.92;71.71
3697;BME280;60662;48.810;8.872;2022-12-07T23:30:18;96164.34;;;18.95;71.81
3697;BME280;60662;48.810;8.872;2022-12-07T23:31:20;96161.84;;;18.93;71.32
3697;BME280;60662;48.810;8.872;2022-12-07T23:32:22;96170.59;;;18.94;71.78
3697;BME280;60662;48.810;8.872;2022-12-07T23:33:23;96159.19;;;18.93;71.56
3697;BME280;60662;48.810;8.872;2022-12-07T23:34:25;96150.22;;;18.85;71.63
3697;BME280;60662;48.810;8.872;2022-12-07T23:35:26;96150.78;;;18.88;71.69
3697;BME280;60662;48.810;8.872;2022-12-07T23:36:28;96157.13;;;18.97;71.64
3697;BME280;60662;48.810;8.872;2022-12-07T23:37:30;96158.91;;;18.97;71.43
3697;BME280;60662;48.810;8.872;2022-12-07T23:38:31;96136.03;;;18.86;71.66
3697;BME280;60662;48.810;8.872;2022-12-07T23:39:33;96147.28;;;18.88;71.49
3697;BME280;60662;48.810;8.872;2022-12-07T23:40:35;96145.13;;;18.93;71.45
3697;BME280;60662;48.810;8.872;2022-12-07T23:41:37;96153.38;;;19.00;71.38
3697;BME280;60662;48.810;8.872;2022-12-07T23:42:38;96151.13;;;18.95;71.34
3697;BME280;60662;48.810;8.872;2022-12-07T23:43:41;96146.81;;;18.94;71.29
3697;BME280;60662;48.810;8.872;2022-12-07T23:44:42;96148.63;;;18.93;71.06
3697;BME280;60662;48.810;8.872;2022-12-07T23:45:47;96143.47;;;18.92;71.03
3697;BME280;60662;48.810;8.872;2022-12-07T23:46:49;96140.09;;;18.90;71.17
3697;BME280;60662;48.810;8.872;2022-12-07T23:47:51;96152.09;;;18.94;71.20
3697;BME280;60662;48.810;8.872;2022-12-07T23:48:53;96144.53;;;18.89;71.08
3697;BME280;60662;48.810;8.872;2022-12-07T23:49:55;96143.31;;;18.93;71.04
3697;BME280;60662;48.810;8.872;2022-12-07T23:50:58;96139.59;;;18.96;71.04
3697;BME280;60662;48.810;8.872;2022-12-07T23:51:59;96142.47;;;18.93;71.07
3697;BME280;60662;48.810;8.872;2022-12-07T23:53:01;96140.41;;;18.97;71.11
3697;BME280;60662;48.810;8.872;2022-12-07T23:54:02;96131.91;;;18.93;70.78
3697;BME280;60662;48.810;8.872;2022-12-07T23:55:04;96126.88;;;18.90;70.67
3697;BME280;60662;48.810;8.872;2022-12-07T23:56:10;96124.09;;;18.91;70.84
3697;BME280;60662;48.810;8.872;2022-12-07T23:57:12;96130.41;;;19.00;70.66
3697;BME280;60662;48.810;8.872;2022-12-07T23:58:13;96131.38;;;18.99;70.72
3697;BME280;60662;48.810;8.872;2022-12-07T23:59:15;96120.84;;;18.88;70.83
